sim
Sign-in with your pilot id or email,
or register
Callsign
Passwort

Schedule Details

Flight Number: OEO7266
Departure: Dusseldorf International Airport (EDDL) at 07:20
Arrival: Fuerteventura Airport (GCFV) at 12:20

Weather Information
Getting current METAR information for EDDL 160220Z 16012KT CAVOK 08/00 Q1026 NOSIG
Getting current METAR information for GCFV 160230Z AUTO 28005KT 9999 NCD 13/10 Q1018

Schedule Frequency

Route Map